Report METAR

 

LIRQ - Firenze, Italy
Distance from station: NNE 20km
Dati ricevuti: 25/02/2018 12:20
Light snow grains, Nuvoloso
Light snow grains, Nuvoloso
 Vento da NNE
Vento: NNE 26 km/h
Temperatura: 3°C
Temperatura Vento: -2°C
P.to Rugiada: -3°C
Umidità: 65%
Barometro: 1010 hPa
Summary: Light Snow Grains
Nuvole: Molto nuvoloso
Visibility: 10 km
Cloud details: Parz. nuvoloso 610 m
Molto nuvoloso 914 m
2018/02/25 11:20 LIRQ 251120Z 02014KT 350V050 9999 -SG SCT020 BKN030 03/M03 Q1010
LIRP - Pisa, Italy
Distance from station: O 55km
Dati ricevuti: 25/02/2018 12:15
Pioviggine, Nuvoloso
Pioviggine, Nuvoloso
 Vento da E
Vento: E 30 km/h
Temperatura: 4°C
Temperatura Vento: -1°C
P.to Rugiada: 2°C
Umidità: 87%
Barometro: 1009 hPa
Summary: Pioviggine
Nuvole: Molto nuvoloso
Visibility: 10 km
Cloud details: Parz. nuvoloso 610 m
Molto nuvoloso 762 m
2018/02/25 11:15 LIRP 251115Z 08016KT 9999 -RA SCT020 BKN025 04/02 Q1009 NOSIG
 
LIVC - Monte Cimone, Italy
Distance from station: NNO 69km
Dati ricevuti: 25/02/2018 11:55
Light snow, Freezing, Nebbia
Light snow, Freezing, Nebbia
 Vento da ENE
Vento: ENE 22 km/h
Temperatura: -7°C
Temperatura Vento: -15°C
P.to Rugiada: -8°C
Umidità: 93%
Barometro: 1001 hPa
Summary: Light snow, Freezing, Nebbia
Visibility: 0 km
2018/02/25 10:55 LIVC 251055Z 06012KT 0000 -SN FZFG VV/// M07/M08 Q1001 RMK MON INVIS VAL INVIS VIS MIN 0000
LIRS - Grosseto, Italy
Distance from station: S 98km
Dati ricevuti: 25/02/2018 11:55
Pioviggine, Nuvoloso
Pioviggine, Nuvoloso
 Vento da NNE
Vento: NNE 26 km/h
Temperatura: 5°C
Temperatura Vento: 1°C
P.to Rugiada: 2°C
Umidità: 81%
Barometro: 1006 hPa
Summary: Pioviggine
Nuvole: Molto nuvoloso
Visibility: 10 km
Cloud details: Few Clouds 610 m
Molto nuvoloso 1219 m
2018/02/25 10:55 LIRS 251055Z 03014KT 9999 -RA FEW020 BKN040 05/02 Q1006